Time;durP1;ratioP1;P1;durP2;ratioP2;P2;SDS_P1;SDS_P2;PMS_P1;PMS_P2;Temp;Humidity;BMP_temperature;BMP_pressure;BME280_temperature;BME280_humidity;BME280_pressure;Samples;Min_cycle;Max_cycle;Signal;HPM_P1;HPM_P2
2022/01/22 00:01:43;;;;;;;11.57;5.50;;;;;;;;;;5009068;28;20033;-73
2022/01/22 00:04:09;;;;;;;13.02;5.00;;;;;;;;;;5009462;28;20084;-73
2022/01/22 00:06:34;;;;;;;9.68;5.03;;;;;;;;;;5008585;28;20037;-74
2022/01/22 00:08:59;;;;;;;6.88;4.68;;;;;;;;;;5009407;28;20076;-74
2022/01/22 00:11:29;;;;;;;9.38;4.93;;;;;;;;;;5009274;28;20099;-74
2022/01/22 00:16:38;;;;;;;12.52;4.97;;;;;;;;;;5008644;28;20032;-74
2022/01/22 00:19:08;;;;;;;8.85;5.22;;;;;;;;;;5009560;28;20041;-74
2022/01/22 00:21:33;;;;;;;11.57;5.38;;;;;;;;;;5008928;28;20080;-72
2022/01/22 00:24:02;;;;;;;11.10;4.85;;;;;;;;;;5009588;28;20045;-73
2022/01/22 00:26:30;;;;;;;13.20;4.63;;;;;;;;;;5008570;28;20022;-73
2022/01/22 00:28:55;;;;;;;9.50;4.40;;;;;;;;;;5009495;28;20040;-73
2022/01/22 00:31:21;;;;;;;8.20;4.43;;;;;;;;;;5007758;28;20025;-74
2022/01/22 00:33:46;;;;;;;7.68;4.38;;;;;;;;;;5009731;28;20050;-75
2022/01/22 00:36:11;;;;;;;11.48;4.50;;;;;;;;;;5008468;28;20494;-74
2022/01/22 00:38:37;;;;;;;7.38;4.82;;;;;;;;;;5009473;28;20030;-73
2022/01/22 00:41:02;;;;;;;10.07;4.97;;;;;;;;;;5009442;28;20037;-75
2022/01/22 00:43:28;;;;;;;8.18;4.55;;;;;;;;;;5009178;28;20030;-73
2022/01/22 00:45:53;;;;;;;7.93;4.80;;;;;;;;;;5008285;28;20120;-74
2022/01/22 00:48:19;;;;;;;9.73;5.18;;;;;;;;;;5009331;28;20033;-73
2022/01/22 00:50:44;;;;;;;10.18;4.57;;;;;;;;;;5009372;28;20032;-74
2022/01/22 00:53:10;;;;;;;7.90;4.95;;;;;;;;;;5008865;28;20506;-73
2022/01/22 00:55:35;;;;;;;9.38;4.93;;;;;;;;;;5009346;28;20025;-74
2022/01/22 00:58:01;;;;;;;10.40;4.60;;;;;;;;;;5008877;28;20030;-75
2022/01/22 01:00:26;;;;;;;12.18;4.82;;;;;;;;;;5009426;28;20030;-73
2022/01/22 01:02:51;;;;;;;11.55;4.32;;;;;;;;;;5008714;28;20041;-74
2022/01/22 01:05:17;;;;;;;9.15;3.80;;;;;;;;;;5008583;28;20514;-74
2022/01/22 01:07:42;;;;;;;6.57;3.15;;;;;;;;;;5008698;28;20788;-73
2022/01/22 01:10:13;;;;;;;6.40;3.15;;;;;;;;;;5009341;28;20135;-74
2022/01/22 01:12:40;;;;;;;6.70;3.47;;;;;;;;;;5008593;28;20506;-76
2022/01/22 01:15:57;;;;;;;8.02;3.80;;;;;;;;;;5009131;28;20048;-73
2022/01/22 01:32:09;;;;;;;9.20;3.10;;;;;;;;;;5007462;28;20173;-73
2022/01/22 01:34:30;;;;;;;10.20;5.90;;;;;;;;;;5011874;28;20033;-73
2022/01/22 01:36:55;;;;;;;9.32;5.15;;;;;;;;;;5011796;28;20018;-73
2022/01/22 01:39:32;;;;;;;12.98;5.80;;;;;;;;;;5012359;28;20103;-73
2022/01/22 01:42:08;;;;;;;7.93;5.20;;;;;;;;;;5012154;28;20040;-73
2022/01/22 01:44:34;;;;;;;11.65;5.50;;;;;;;;;;5012001;28;20029;-73
2022/01/22 01:47:03;;;;;;;8.55;5.45;;;;;;;;;;5011344;28;20034;-73
2022/01/22 01:49:29;;;;;;;8.50;5.00;;;;;;;;;;5012143;28;20037;-73
2022/01/22 01:51:58;;;;;;;11.00;5.38;;;;;;;;;;5011482;28;20488;-74
2022/01/22 01:54:30;;;;;;;10.95;5.15;;;;;;;;;;5012044;28;20030;-72
2022/01/22 01:59:44;;;;;;;10.15;5.22;;;;;;;;;;4992606;28;20038;-74
2022/01/22 02:02:09;;;;;;;10.65;5.05;;;;;;;;;;5005767;28;20076;-73
2022/01/22 02:04:37;;;;;;;7.32;5.28;;;;;;;;;;5010305;28;20026;-73
2022/01/22 02:07:04;;;;;;;11.25;5.22;;;;;;;;;;5011483;28;20058;-73
2022/01/22 02:09:30;;;;;;;9.18;4.72;;;;;;;;;;5011578;28;20407;-73
2022/01/22 02:12:07;;;;;;;12.68;6.57;;;;;;;;;;5011013;28;20029;-73
2022/01/22 02:25:21;;;;;;;7.25;3.90;;;;;;;;;;5011723;28;20032;-74
2022/01/22 02:27:47;;;;;;;5.47;4.07;;;;;;;;;;5009988;28;20030;-73
2022/01/22 02:30:19;;;;;;;8.30;3.67;;;;;;;;;;5011280;28;20025;-73
2022/01/22 02:38:12;;;;;;;5.38;3.35;;;;;;;;;;4967850;28;20092;-74
2022/01/22 02:40:47;;;;;;;5.78;3.83;;;;;;;;;;5003956;28;20406;-73
2022/01/22 02:43:13;;;;;;;7.88;3.80;;;;;;;;;;5010379;28;20040;-74
2022/01/22 02:45:40;;;;;;;8.25;3.75;;;;;;;;;;5010851;28;20021;-74
2022/01/22 02:48:05;;;;;;;7.97;3.88;;;;;;;;;;5010507;28;20026;-73
2022/01/22 02:50:31;;;;;;;9.90;3.97;;;;;;;;;;5010945;28;20067;-76
2022/01/22 02:53:01;;;;;;;7.93;3.72;;;;;;;;;;5010408;28;20028;-72
2022/01/22 02:55:26;;;;;;;8.52;3.47;;;;;;;;;;5009051;28;20032;-74
2022/01/22 02:57:51;;;;;;;5.78;3.50;;;;;;;;;;5010320;28;20029;-73
2022/01/22 03:00:18;;;;;;;7.45;3.55;;;;;;;;;;5009386;28;20036;-73
2022/01/22 03:02:44;;;;;;;7.82;3.55;;;;;;;;;;5049443;22;20553;-77
2022/01/22 03:05:10;;;;;;;9.52;3.70;;;;;;;;;;5030244;28;20021;-76
2022/01/22 03:07:38;;;;;;;9.57;3.65;;;;;;;;;;5030232;28;20025;-77
2022/01/22 03:10:05;;;;;;;10.38;3.70;;;;;;;;;;5029270;28;20032;-77
2022/01/22 03:12:51;;;;;;;13.57;3.88;;;;;;;;;;5030249;28;20044;-77
2022/01/22 03:15:48;;;;;;;9.60;3.72;;;;;;;;;;5030183;28;20092;-77
2022/01/22 03:18:19;;;;;;;12.77;3.85;;;;;;;;;;5029758;28;20505;-77
2022/01/22 03:21:05;;;;;;;9.38;4.07;;;;;;;;;;5030050;28;20037;-77
2022/01/22 03:29:09;;;;;;;8.02;3.30;;;;;;;;;;5029681;28;20032;-77
2022/01/22 03:31:37;;;;;;;8.15;3.67;;;;;;;;;;5030090;28;20109;-78
2022/01/22 03:34:03;;;;;;;7.00;3.58;;;;;;;;;;5029785;28;20368;-77
2022/01/22 03:36:30;;;;;;;9.82;3.90;;;;;;;;;;5029204;28;20032;-77
2022/01/22 03:38:55;;;;;;;6.40;3.58;;;;;;;;;;5029494;28;20104;-77
2022/01/22 03:41:23;;;;;;;10.68;3.75;;;;;;;;;;5027950;28;20136;-77
2022/01/22 03:43:50;;;;;;;7.57;3.88;;;;;;;;;;5029330;28;20482;-77
2022/01/22 03:46:15;;;;;;;6.13;3.67;;;;;;;;;;5029705;28;20018;-77
2022/01/22 03:48:40;;;;;;;5.45;4.15;;;;;;;;;;5029087;28;20029;-77
2022/01/22 03:51:06;;;;;;;7.50;4.13;;;;;;;;;;5029253;28;20487;-77
2022/01/22 03:53:31;;;;;;;7.72;3.95;;;;;;;;;;5028998;28;20095;-77
2022/01/22 03:56:04;;;;;;;8.15;3.88;;;;;;;;;;5029489;28;20029;-77
2022/01/22 03:58:35;;;;;;;10.85;4.95;;;;;;;;;;5029165;28;20022;-76
2022/01/22 04:03:54;;;;;;;9.00;4.07;;;;;;;;;;5028649;28;20036;-77
2022/01/22 04:09:06;;;;;;;7.47;4.25;;;;;;;;;;5029424;28;20037;-77
2022/01/22 04:11:35;;;;;;;9.38;4.40;;;;;;;;;;5029581;28;20030;-77
2022/01/22 04:14:03;;;;;;;8.20;4.35;;;;;;;;;;5029026;28;20497;-77
2022/01/22 04:16:29;;;;;;;11.80;4.45;;;;;;;;;;5029158;28;20033;-77
2022/01/22 04:27:22;;;;;;;7.50;4.55;;;;;;;;;;5024312;28;20125;-76
2022/01/22 04:29:48;;;;;;;8.88;4.28;;;;;;;;;;5029074;28;20116;-76
2022/01/22 04:32:13;;;;;;;13.73;4.75;;;;;;;;;;5029367;28;20590;-77
2022/01/22 04:34:38;;;;;;;9.02;4.60;;;;;;;;;;5028684;28;20025;-77
2022/01/22 04:37:04;;;;;;;8.75;4.43;;;;;;;;;;5029089;28;20033;-77
2022/01/22 04:39:29;;;;;;;9.43;4.28;;;;;;;;;;5028805;28;20022;-77
2022/01/22 04:41:56;;;;;;;9.57;4.63;;;;;;;;;;5029540;28;20029;-76
2022/01/22 04:44:25;;;;;;;7.78;4.80;;;;;;;;;;5027245;28;20144;-77
2022/01/22 04:47:02;;;;;;;10.45;5.10;;;;;;;;;;5028858;28;20484;-77
2022/01/22 04:52:36;;;;;;;8.93;5.00;;;;;;;;;;5011959;28;20088;-76
2022/01/22 04:55:02;;;;;;;7.07;4.85;;;;;;;;;;5012577;28;20056;-77
2022/01/22 04:57:31;;;;;;;10.60;4.78;;;;;;;;;;5013506;28;20471;-77
2022/01/22 04:59:56;;;;;;;11.13;5.15;;;;;;;;;;5027543;28;20079;-76
2022/01/22 05:02:22;;;;;;;12.40;5.18;;;;;;;;;;5032822;28;20033;-76
2022/01/22 05:04:47;;;;;;;6.53;4.45;;;;;;;;;;5032376;28;20037;-76
2022/01/22 05:07:13;;;;;;;8.88;5.10;;;;;;;;;;5033243;28;20493;-77
2022/01/22 05:09:38;;;;;;;8.45;5.43;;;;;;;;;;5032496;28;20034;-76
2022/01/22 05:12:07;;;;;;;11.77;5.45;;;;;;;;;;5033243;28;20043;-76
2022/01/22 05:14:33;;;;;;;10.75;4.88;;;;;;;;;;5031984;28;20037;-77
2022/01/22 05:17:00;;;;;;;9.95;5.40;;;;;;;;;;5032990;28;20031;-77
2022/01/22 05:22:25;;;;;;;9.27;4.88;;;;;;;;;;5033114;28;20048;-77
2022/01/22 05:24:55;;;;;;;12.52;5.28;;;;;;;;;;5032464;28;20104;-77
2022/01/22 05:32:57;;;;;;;8.82;4.90;;;;;;;;;;5032839;28;20036;-77
2022/01/22 05:38:01;;;;;;;12.20;5.38;;;;;;;;;;5032850;28;20103;-76
2022/01/22 05:40:28;;;;;;;8.23;5.40;;;;;;;;;;5031979;28;20059;-77
2022/01/22 05:42:54;;;;;;;11.35;6.05;;;;;;;;;;5032206;28;20033;-77
2022/01/22 05:45:19;;;;;;;8.40;5.95;;;;;;;;;;5031676;28;20486;-76
2022/01/22 05:47:45;;;;;;;23.50;12.95;;;;;;;;;;5032534;28;20442;-77
2022/01/22 05:50:24;;;;;;;15.07;6.93;;;;;;;;;;5031626;28;20033;-76
2022/01/22 05:52:56;;;;;;;11.15;5.82;;;;;;;;;;5032361;28;20104;-76
2022/01/22 05:55:41;;;;;;;16.33;6.60;;;;;;;;;;5031121;28;20557;-76
2022/01/22 06:00:52;;;;;;;14.88;6.78;;;;;;;;;;5031232;28;20075;-76
2022/01/22 06:03:18;;;;;;;12.50;7.10;;;;;;;;;;5031206;28;20076;-76
2022/01/22 06:05:43;;;;;;;20.40;9.75;;;;;;;;;;5031347;28;20030;-76
2022/01/22 06:08:08;;;;;;;16.35;7.97;;;;;;;;;;5031921;28;20067;-76
2022/01/22 06:10:34;;;;;;;14.07;7.18;;;;;;;;;;5031023;28;20035;-76
2022/01/22 06:15:37;;;;;;;12.57;7.30;;;;;;;;;;5031077;28;20060;-76
2022/01/22 06:18:03;;;;;;;28.42;24.58;;;;;;;;;;5031916;28;20057;-76
2022/01/22 06:20:28;;;;;;;11.77;8.25;;;;;;;;;;5031278;28;20028;-76
2022/01/22 06:22:53;;;;;;;13.55;8.25;;;;;;;;;;5032000;28;20502;-76
2022/01/22 06:25:18;;;;;;;14.70;7.85;;;;;;;;;;5031198;28;20032;-76
2022/01/22 06:27:44;;;;;;;17.30;8.35;;;;;;;;;;5032093;28;20033;-76
2022/01/22 06:30:10;;;;;;;12.90;7.95;;;;;;;;;;5030530;28;20033;-76
2022/01/22 06:32:35;;;;;;;12.18;8.02;;;;;;;;;;5030728;28;20044;-76
2022/01/22 06:35:00;;;;;;;14.55;7.53;;;;;;;;;;5031182;28;20064;-76
2022/01/22 06:37:26;;;;;;;14.73;7.05;;;;;;;;;;5031299;28;20085;-76
2022/01/22 06:41:44;;;;;;;13.15;7.35;;;;;;;;;;5030999;28;20098;-76
2022/01/22 06:42:36;;;;;;;12.45;7.30;;;;;;;;;;5030842;28;20398;-76
2022/01/22 06:45:04;;;;;;;15.95;8.30;;;;;;;;;;5030594;28;20029;-76
2022/01/22 06:47:30;;;;;;;16.70;7.45;;;;;;;;;;5030196;28;20051;-76
2022/01/22 06:49:56;;;;;;;15.50;7.57;;;;;;;;;;5031046;28;20033;-77
2022/01/22 06:52:22;;;;;;;13.68;8.15;;;;;;;;;;5029556;28;20045;-76
2022/01/22 06:54:47;;;;;;;15.40;8.00;;;;;;;;;;5030573;28;20074;-77
2022/01/22 06:57:13;;;;;;;14.50;7.80;;;;;;;;;;5030049;28;20017;-76
2022/01/22 06:59:39;;;;;;;14.30;9.13;;;;;;;;;;5030641;28;20040;-76
2022/01/22 07:02:04;;;;;;;18.17;8.55;;;;;;;;;;5029334;28;20037;-76
2022/01/22 07:04:31;;;;;;;13.75;8.40;;;;;;;;;;5031930;28;20030;-77
2022/01/22 07:06:57;;;;;;;16.48;8.38;;;;;;;;;;5038793;28;20041;-76
2022/01/22 07:09:22;;;;;;;14.70;7.93;;;;;;;;;;5034908;28;20032;-76
2022/01/22 07:11:48;;;;;;;16.02;8.40;;;;;;;;;;5028493;28;20055;-77
2022/01/22 07:14:13;;;;;;;15.52;9.23;;;;;;;;;;5029639;28;20029;-77
2022/01/22 07:16:39;;;;;;;16.42;9.43;;;;;;;;;;5029276;28;20025;-77
2022/01/22 07:19:04;;;;;;;16.80;8.90;;;;;;;;;;5030166;28;20029;-76
2022/01/22 07:21:30;;;;;;;19.33;11.15;;;;;;;;;;5029760;28;20026;-77
2022/01/22 07:26:28;;;;;;;15.02;8.52;;;;;;;;;;5029955;28;20668;-77
2022/01/22 07:28:53;;;;;;;24.85;14.93;;;;;;;;;;5030226;28;20383;-77
2022/01/22 07:31:27;;;;;;;28.52;15.07;;;;;;;;;;5029213;28;20025;-77
2022/01/22 07:33:52;;;;;;;19.38;9.45;;;;;;;;;;5029750;28;20029;-77
2022/01/22 07:36:18;;;;;;;17.13;8.65;;;;;;;;;;5029088;28;20391;-77
2022/01/22 07:38:43;;;;;;;18.60;9.73;;;;;;;;;;5029857;28;20033;-77
2022/01/22 07:41:09;;;;;;;14.80;9.25;;;;;;;;;;5029132;28;20021;-77
2022/01/22 07:43:35;;;;;;;20.17;11.48;;;;;;;;;;5029870;28;20021;-77
2022/01/22 07:46:01;;;;;;;17.48;9.88;;;;;;;;;;5024557;28;20022;-76
2022/01/22 07:48:26;;;;;;;19.20;10.70;;;;;;;;;;5029562;28;20035;-77
2022/01/22 07:50:51;;;;;;;19.90;10.55;;;;;;;;;;5027448;28;20399;-77
2022/01/22 07:53:17;;;;;;;19.38;10.10;;;;;;;;;;5027927;28;20029;-77
2022/01/22 07:55:42;;;;;;;16.75;9.60;;;;;;;;;;5028070;28;20042;-77
2022/01/22 07:58:07;;;;;;;21.45;10.88;;;;;;;;;;5020453;28;20033;-77
2022/01/22 08:00:33;;;;;;;30.35;19.35;;;;;;;;;;5029424;28;20052;-77
2022/01/22 08:02:58;;;;;;;26.35;14.90;;;;;;;;;;5023089;28;20034;-76
2022/01/22 08:05:24;;;;;;;40.17;24.13;;;;;;;;;;5009967;28;20034;-77
2022/01/22 08:07:49;;;;;;;34.10;18.80;;;;;;;;;;5028227;28;20245;-76
2022/01/22 08:10:16;;;;;;;27.98;15.15;;;;;;;;;;5012252;28;20033;-77
2022/01/22 08:12:42;;;;;;;22.08;11.68;;;;;;;;;;5011167;28;20041;-77
2022/01/22 08:15:10;;;;;;;19.63;10.82;;;;;;;;;;5029513;28;20084;-77
2022/01/22 08:17:36;;;;;;;18.13;10.82;;;;;;;;;;5028989;28;20410;-76
2022/01/22 08:20:02;;;;;;;17.00;10.00;;;;;;;;;;5024059;28;20113;-76
2022/01/22 08:22:28;;;;;;;21.48;11.10;;;;;;;;;;5021653;28;20036;-77
2022/01/22 08:24:55;;;;;;;17.90;10.20;;;;;;;;;;5028923;28;20414;-77
2022/01/22 08:27:34;;;;;;;19.55;10.55;;;;;;;;;;5031638;28;20629;-77
2022/01/22 08:30:00;;;;;;;18.10;9.90;;;;;;;;;;5033412;28;20025;-77
2022/01/22 08:37:41;;;;;;;21.52;11.13;;;;;;;;;;5032338;28;20567;-77
2022/01/22 08:40:08;;;;;;;19.67;10.52;;;;;;;;;;5031573;28;20029;-77
2022/01/22 08:42:34;;;;;;;19.80;11.00;;;;;;;;;;5032372;28;20022;-77
2022/01/22 08:45:00;;;;;;;18.77;10.40;;;;;;;;;;5031836;28;20120;-77
2022/01/22 08:47:25;;;;;;;20.15;10.93;;;;;;;;;;5030789;28;20124;-77
2022/01/22 08:49:50;;;;;;;25.63;11.15;;;;;;;;;;5032895;28;20503;-76
2022/01/22 08:52:18;;;;;;;21.77;11.20;;;;;;;;;;5032510;28;20084;-76
2022/01/22 08:54:44;;;;;;;24.02;10.70;;;;;;;;;;5032518;28;20053;-77
2022/01/22 08:57:10;;;;;;;19.33;10.27;;;;;;;;;;5032549;28;20055;-77
2022/01/22 08:59:36;;;;;;;20.83;11.43;;;;;;;;;;5030704;28;20343;-77
2022/01/22 09:02:03;;;;;;;23.15;11.88;;;;;;;;;;5024169;28;20506;-75
2022/01/22 09:04:28;;;;;;;22.00;10.75;;;;;;;;;;5032447;28;20036;-75
2022/01/22 09:06:54;;;;;;;19.08;11.05;;;;;;;;;;5031379;28;20033;-75
2022/01/22 09:09:19;;;;;;;21.42;11.77;;;;;;;;;;5033108;28;20057;-75
2022/01/22 09:11:45;;;;;;;19.70;11.93;;;;;;;;;;5032837;28;20029;-75
2022/01/22 09:14:13;;;;;;;18.92;11.07;;;;;;;;;;5029884;28;20105;-75
2022/01/22 09:16:40;;;;;;;34.28;19.50;;;;;;;;;;5032332;28;20022;-74
2022/01/22 09:19:09;;;;;;;25.65;12.73;;;;;;;;;;5031890;28;20114;-75
2022/01/22 09:21:43;;;;;;;19.63;10.93;;;;;;;;;;5032420;28;20163;-75
2022/01/22 09:24:09;;;;;;;24.38;11.18;;;;;;;;;;5031923;28;20056;-75
2022/01/22 09:26:35;;;;;;;19.02;11.13;;;;;;;;;;5032555;28;20041;-75
2022/01/22 09:29:01;;;;;;;21.85;11.63;;;;;;;;;;5030954;28;20025;-75
2022/01/22 09:31:27;;;;;;;20.02;10.60;;;;;;;;;;5031638;28;20025;-75
2022/01/22 09:33:56;;;;;;;21.58;11.25;;;;;;;;;;5026835;28;20064;-75
2022/01/22 09:36:23;;;;;;;18.63;10.57;;;;;;;;;;5031577;28;20101;-75
2022/01/22 09:38:48;;;;;;;20.38;10.07;;;;;;;;;;5027929;28;20411;-75
2022/01/22 09:41:19;;;;;;;20.80;12.32;;;;;;;;;;5039773;28;20029;-76
2022/01/22 09:43:44;;;;;;;17.50;10.25;;;;;;;;;;5045518;28;20029;-76
2022/01/22 09:46:11;;;;;;;14.18;8.43;;;;;;;;;;5039532;28;20237;-76
2022/01/22 09:48:45;;;;;;;16.73;9.32;;;;;;;;;;5029603;28;20482;-75
2022/01/22 09:51:12;;;;;;;16.15;10.10;;;;;;;;;;5031917;28;20037;-76
2022/01/22 09:53:39;;;;;;;15.25;8.43;;;;;;;;;;5028238;28;20029;-76
2022/01/22 09:56:05;;;;;;;13.73;7.88;;;;;;;;;;5030161;28;20064;-76
2022/01/22 09:58:31;;;;;;;13.77;8.35;;;;;;;;;;5031266;28;20475;-75
2022/01/22 10:01:28;;;;;;;14.07;8.43;;;;;;;;;;5031438;28;20033;-76
2022/01/22 10:03:56;;;;;;;15.43;7.82;;;;;;;;;;5031328;28;20148;-76
2022/01/22 10:06:24;;;;;;;13.57;7.07;;;;;;;;;;5031659;28;20518;-75
2022/01/22 10:08:56;;;;;;;13.27;7.35;;;;;;;;;;5031134;28;20025;-75
2022/01/22 10:11:26;;;;;;;12.05;7.07;;;;;;;;;;5031455;28;20183;-75
2022/01/22 10:13:59;;;;;;;31.55;16.73;;;;;;;;;;5030983;28;20115;-76
2022/01/22 10:16:30;;;;;;;11.73;7.45;;;;;;;;;;5031324;28;20021;-76
2022/01/22 10:19:21;;;;;;;9.75;6.13;;;;;;;;;;5030253;28;20025;-76
2022/01/22 10:21:55;;;;;;;9.35;6.25;;;;;;;;;;5031767;28;20037;-75
2022/01/22 10:24:47;;;;;;;13.20;7.85;;;;;;;;;;5030748;28;20079;-75
2022/01/22 10:30:03;;;;;;;9.00;6.38;;;;;;;;;;5030532;28;20581;-76
2022/01/22 10:35:08;;;;;;;9.02;5.50;;;;;;;;;;5026841;28;20037;-75
2022/01/22 10:37:34;;;;;;;10.40;5.93;;;;;;;;;;5031200;28;20025;-75
2022/01/22 10:40:30;;;;;;;9.80;6.50;;;;;;;;;;5030448;28;20677;-75
2022/01/22 10:43:29;;;;;;;13.82;6.78;;;;;;;;;;5029004;28;20475;-75
2022/01/22 10:49:09;;;;;;;13.48;6.63;;;;;;;;;;5029989;28;20424;-74
2022/01/22 10:51:45;;;;;;;8.80;6.22;;;;;;;;;;5044945;28;20025;-75
2022/01/22 10:54:13;;;;;;;10.25;6.10;;;;;;;;;;5030287;28;20032;-75
2022/01/22 10:56:41;;;;;;;12.50;6.60;;;;;;;;;;5030572;28;20064;-75
2022/01/22 10:59:12;;;;;;;10.35;6.70;;;;;;;;;;5030296;28;20506;-75
2022/01/22 11:01:43;;;;;;;12.10;7.03;;;;;;;;;;5030557;28;20124;-75
2022/01/22 11:04:12;;;;;;;12.00;7.18;;;;;;;;;;5029796;28;20410;-74
2022/01/22 11:06:40;;;;;;;12.13;7.55;;;;;;;;;;5030014;28;20018;-75
2022/01/22 11:09:07;;;;;;;14.35;8.43;;;;;;;;;;5029643;28;20063;-75
2022/01/22 11:11:37;;;;;;;12.95;7.55;;;;;;;;;;5030270;28;20021;-75
2022/01/22 11:14:05;;;;;;;11.38;7.75;;;;;;;;;;5029419;28;20040;-76
2022/01/22 11:16:31;;;;;;;19.77;10.20;;;;;;;;;;5030201;28;20025;-76
2022/01/22 11:18:58;;;;;;;12.15;7.70;;;;;;;;;;5028137;28;20029;-75
2022/01/22 11:21:24;;;;;;;12.98;7.75;;;;;;;;;;5030078;28;20093;-75
2022/01/22 11:23:50;;;;;;;11.27;7.13;;;;;;;;;;5028842;28;20025;-75
2022/01/22 11:26:16;;;;;;;13.30;8.35;;;;;;;;;;5029600;28;20053;-75
2022/01/22 11:28:44;;;;;;;19.77;9.45;;;;;;;;;;5028987;28;20036;-76
2022/01/22 11:31:13;;;;;;;14.95;9.82;;;;;;;;;;5029686;28;20037;-75
2022/01/22 11:33:40;;;;;;;13.85;8.20;;;;;;;;;;5029683;28;20483;-75
2022/01/22 11:36:31;;;;;;;12.98;8.40;;;;;;;;;;5029836;28;20029;-75
2022/01/22 11:39:00;;;;;;;14.98;7.93;;;;;;;;;;5029351;28;20091;-75
2022/01/22 11:41:27;;;;;;;14.27;7.95;;;;;;;;;;5029369;28;20037;-75
2022/01/22 11:44:16;;;;;;;14.98;8.02;;;;;;;;;;5029558;28;20032;-75
2022/01/22 11:46:51;;;;;;;12.88;7.40;;;;;;;;;;5029805;28;20121;-75
2022/01/22 11:49:26;;;;;;;14.57;7.72;;;;;;;;;;5029623;28;20025;-75
2022/01/22 11:52:11;;;;;;;14.00;8.25;;;;;;;;;;5030056;28;20557;-75
2022/01/22 11:55:00;;;;;;;12.75;8.07;;;;;;;;;;5029235;28;20179;-75
2022/01/22 11:57:30;;;;;;;14.00;8.35;;;;;;;;;;5029617;28;20032;-76
2022/01/22 12:00:14;;;;;;;13.43;8.75;;;;;;;;;;5027569;28;20033;-75
2022/01/22 12:02:40;;;;;;;17.13;10.43;;;;;;;;;;5028206;28;20108;-75
2022/01/22 12:05:06;;;;;;;15.07;9.13;;;;;;;;;;5029206;28;20543;-75
2022/01/22 12:07:35;;;;;;;14.90;8.35;;;;;;;;;;5029704;28;20030;-75
2022/01/22 12:16:13;;;;;;;18.25;8.70;;;;;;;;;;5029068;28;20036;-75
2022/01/22 12:18:47;;;;;;;20.70;11.57;;;;;;;;;;5029868;28;20034;-75
2022/01/22 12:21:34;;;;;;;17.58;8.95;;;;;;;;;;5029162;28;20025;-75
2022/01/22 12:24:00;;;;;;;14.15;9.45;;;;;;;;;;5029574;28;20034;-75
2022/01/22 12:26:44;;;;;;;16.00;8.52;;;;;;;;;;5028873;28;20075;-75
2022/01/22 12:29:34;;;;;;;16.70;8.70;;;;;;;;;;5029195;28;20115;-76
2022/01/22 12:32:18;;;;;;;18.30;10.02;;;;;;;;;;5029131;28;20032;-75
2022/01/22 12:34:54;;;;;;;16.52;8.98;;;;;;;;;;5028647;28;20029;-76
2022/01/22 12:37:21;;;;;;;16.80;9.32;;;;;;;;;;5029397;28;20025;-75
2022/01/22 12:39:51;;;;;;;15.00;8.82;;;;;;;;;;5028716;28;20017;-75
2022/01/22 12:42:26;;;;;;;17.05;9.25;;;;;;;;;;5029154;28;20025;-75
2022/01/22 12:44:59;;;;;;;17.52;9.50;;;;;;;;;;5028358;28;20034;-75
2022/01/22 12:47:26;;;;;;;16.10;9.88;;;;;;;;;;5028903;28;20034;-75
2022/01/22 12:50:04;;;;;;;15.63;8.30;;;;;;;;;;5028680;28;20503;-75
2022/01/22 12:52:30;;;;;;;16.92;9.77;;;;;;;;;;5028883;28;20091;-75
2022/01/22 12:54:58;;;;;;;16.55;8.93;;;;;;;;;;5028530;28;20526;-75
2022/01/22 12:57:25;;;;;;;16.92;9.45;;;;;;;;;;5028889;28;20475;-75
2022/01/22 13:00:08;;;;;;;15.82;9.57;;;;;;;;;;5024617;28;20025;-75
2022/01/22 13:02:38;;;;;;;18.58;10.20;;;;;;;;;;5043855;28;20390;-75
2022/01/22 13:05:04;;;;;;;17.42;9.25;;;;;;;;;;5028197;28;20053;-75
2022/01/22 13:07:52;;;;;;;13.45;8.80;;;;;;;;;;5028970;28;20116;-75
2022/01/22 13:10:18;;;;;;;14.15;9.05;;;;;;;;;;5028909;28;20033;-75
2022/01/22 13:12:46;;;;;;;24.25;14.52;;;;;;;;;;5030621;28;20060;-75
2022/01/22 13:15:15;;;;;;;18.08;10.95;;;;;;;;;;5031383;28;20388;-75
2022/01/22 13:17:40;;;;;;;20.90;11.30;;;;;;;;;;5032526;28;20022;-75
2022/01/22 13:20:07;;;;;;;36.83;19.95;;;;;;;;;;5031603;28;20041;-75
2022/01/22 13:22:34;;;;;;;22.73;11.95;;;;;;;;;;5032256;28;20502;-75
2022/01/22 13:25:13;;;;;;;17.70;9.02;;;;;;;;;;5031810;28;20055;-75
2022/01/22 13:27:40;;;;;;;15.63;9.20;;;;;;;;;;5033075;28;20034;-75
2022/01/22 13:30:08;;;;;;;14.35;8.55;;;;;;;;;;5032281;28;20057;-75
2022/01/22 13:32:59;;;;;;;19.35;9.80;;;;;;;;;;5033068;28;20387;-75
2022/01/22 13:38:27;;;;;;;14.98;8.98;;;;;;;;;;5032294;28;20083;-75
2022/01/22 13:48:57;;;;;;;16.67;8.60;;;;;;;;;;5032080;28;20515;-76
2022/01/22 13:51:24;;;;;;;14.18;8.20;;;;;;;;;;5031227;28;20029;-76
2022/01/22 13:53:49;;;;;;;13.52;8.73;;;;;;;;;;5051893;28;20106;-76
2022/01/22 13:56:16;;;;;;;14.68;9.60;;;;;;;;;;5046539;28;20072;-76
2022/01/22 13:58:42;;;;;;;15.05;9.15;;;;;;;;;;5033098;28;20036;-76
2022/01/22 14:01:27;;;;;;;15.80;8.30;;;;;;;;;;5030978;28;20132;-76
2022/01/22 14:04:24;;;;;;;14.13;8.32;;;;;;;;;;5030433;28;20595;-76
2022/01/22 14:06:50;;;;;;;17.23;8.73;;;;;;;;;;5007570;28;20084;-76
2022/01/22 14:09:20;;;;;;;15.82;8.57;;;;;;;;;;5031977;28;20049;-76
2022/01/22 14:12:14;;;;;;;19.48;9.48;;;;;;;;;;5030976;28;20044;-76
2022/01/22 14:15:03;;;;;;;14.65;8.10;;;;;;;;;;5030969;28;20479;-75
2022/01/22 14:17:37;;;;;;;13.25;7.97;;;;;;;;;;5011072;28;20041;-76
2022/01/22 14:20:11;;;;;;;16.05;9.45;;;;;;;;;;5023061;28;20104;-76
2022/01/22 14:23:16;;;;;;;18.27;11.48;;;;;;;;;;5030725;28;20061;-76
2022/01/22 14:26:08;;;;;;;16.17;9.95;;;;;;;;;;5023150;28;20238;-76
2022/01/22 14:28:48;;;;;;;13.63;7.55;;;;;;;;;;5031153;28;20065;-75
2022/01/22 14:31:25;;;;;;;12.50;7.35;;;;;;;;;;5031387;28;20017;-75
2022/01/22 14:33:52;;;;;;;17.85;9.85;;;;;;;;;;5030891;28;20036;-75
2022/01/22 14:36:20;;;;;;;17.23;9.40;;;;;;;;;;5030274;28;20029;-75
2022/01/22 14:38:52;;;;;;;12.88;8.20;;;;;;;;;;5031013;28;20029;-76
2022/01/22 14:44:27;;;;;;;13.43;8.48;;;;;;;;;;5030738;28;20079;-76
2022/01/22 14:46:56;;;;;;;13.98;7.78;;;;;;;;;;5030077;28;20030;-76
2022/01/22 14:49:51;;;;;;;12.80;7.38;;;;;;;;;;5030761;28;20396;-76
2022/01/22 14:52:23;;;;;;;12.80;7.90;;;;;;;;;;5030061;28;20029;-76
2022/01/22 14:54:50;;;;;;;11.32;6.68;;;;;;;;;;5030230;28;20033;-76
2022/01/22 14:57:19;;;;;;;11.48;6.80;;;;;;;;;;5030222;28;20030;-76
2022/01/22 14:59:45;;;;;;;11.82;6.85;;;;;;;;;;5030626;28;20036;-76
2022/01/22 15:02:11;;;;;;;15.60;9.27;;;;;;;;;;5040376;22;20046;-74
2022/01/22 15:04:38;;;;;;;13.93;8.10;;;;;;;;;;5009139;28;20084;-75
2022/01/22 15:07:08;;;;;;;11.63;7.05;;;;;;;;;;5009917;28;20022;-75
2022/01/22 15:09:34;;;;;;;13.77;8.63;;;;;;;;;;5010113;28;20099;-76
2022/01/22 15:12:02;;;;;;;14.18;8.45;;;;;;;;;;5009798;28;20065;-76
2022/01/22 15:14:29;;;;;;;15.20;9.98;;;;;;;;;;5010775;28;20033;-75
2022/01/22 15:19:39;;;;;;;12.63;8.98;;;;;;;;;;5009511;28;20029;-76
2022/01/22 15:22:08;;;;;;;14.77;8.88;;;;;;;;;;5010832;28;20438;-75
2022/01/22 15:24:33;;;;;;;11.85;7.50;;;;;;;;;;5015416;28;20483;-76
2022/01/22 15:26:58;;;;;;;12.27;8.02;;;;;;;;;;5009137;28;20076;-76
2022/01/22 15:29:27;;;;;;;12.32;8.13;;;;;;;;;;5009749;28;20117;-76
2022/01/22 15:36:56;;;;;;;13.88;8.73;;;;;;;;;;5007539;28;20114;-76
2022/01/22 15:39:21;;;;;;;16.10;9.85;;;;;;;;;;5009605;28;20097;-76
2022/01/22 15:41:47;;;;;;;18.05;10.43;;;;;;;;;;5009329;28;20110;-76
2022/01/22 15:44:13;;;;;;;15.65;9.00;;;;;;;;;;5008699;28;20029;-76
2022/01/22 15:46:42;;;;;;;15.27;10.25;;;;;;;;;;5008948;28;20505;-76
2022/01/22 15:49:13;;;;;;;17.02;10.00;;;;;;;;;;5003673;28;20025;-76
2022/01/22 15:51:38;;;;;;;15.90;10.98;;;;;;;;;;5006482;28;20036;-75
2022/01/22 15:54:03;;;;;;;17.73;10.07;;;;;;;;;;5002372;28;20113;-76
2022/01/22 15:56:29;;;;;;;14.95;9.13;;;;;;;;;;5004882;28;20483;-76
2022/01/22 15:58:54;;;;;;;15.43;8.95;;;;;;;;;;5008733;28;20061;-74
2022/01/22 16:01:19;;;;;;;14.85;9.13;;;;;;;;;;5009427;28;20033;-76
2022/01/22 16:03:47;;;;;;;14.07;7.97;;;;;;;;;;5009438;28;20034;-76
2022/01/22 16:06:19;;;;;;;13.05;8.20;;;;;;;;;;5009347;28;20040;-75
2022/01/22 16:08:46;;;;;;;12.20;8.10;;;;;;;;;;5007870;28;20136;-76
2022/01/22 16:11:11;;;;;;;13.98;8.93;;;;;;;;;;5009534;28;20034;-76
2022/01/22 16:13:37;;;;;;;16.25;11.00;;;;;;;;;;5008862;28;20032;-75
2022/01/22 16:16:03;;;;;;;18.08;9.93;;;;;;;;;;5007870;28;20030;-75
2022/01/22 16:18:29;;;;;;;17.30;10.85;;;;;;;;;;5006450;28;20133;-76
2022/01/22 16:20:54;;;;;;;18.15;10.77;;;;;;;;;;5009593;28;20105;-76
2022/01/22 16:23:20;;;;;;;20.25;12.55;;;;;;;;;;5009031;28;20352;-76
2022/01/22 16:25:45;;;;;;;17.70;11.60;;;;;;;;;;5009484;28;20057;-75
2022/01/22 16:28:11;;;;;;;24.63;13.48;;;;;;;;;;5008991;28;20116;-76
2022/01/22 16:30:36;;;;;;;15.90;10.30;;;;;;;;;;5009474;28;20041;-76
2022/01/22 16:33:02;;;;;;;12.25;8.48;;;;;;;;;;5009154;28;20384;-76
2022/01/22 16:35:28;;;;;;;13.27;8.52;;;;;;;;;;5009400;28;20529;-76
2022/01/22 16:37:53;;;;;;;30.95;9.23;;;;;;;;;;5010469;28;20113;-76
2022/01/22 16:40:24;;;;;;;12.50;7.93;;;;;;;;;;5019582;28;20026;-75
2022/01/22 16:42:58;;;;;;;16.35;9.27;;;;;;;;;;5009315;28;20056;-76